createdAt,value
2017-12-25T00:00:42.428Z,95.55
2017-12-25T00:01:42.346Z,95.07
2017-12-25T00:02:42.261Z,95.36
2017-12-25T00:03:42.184Z,95.07
2017-12-25T00:04:42.095Z,95.07
2017-12-25T00:05:42.012Z,95.36
2017-12-25T00:06:41.929Z,95.46
2017-12-25T00:07:41.858Z,95.17
2017-12-25T00:08:41.764Z,95.65
2017-12-25T00:09:41.680Z,94.89
2017-12-25T00:10:41.600Z,95.84
2017-12-25T00:11:41.515Z,95.27
2017-12-25T00:12:41.433Z,95.65
2017-12-25T00:13:41.347Z,95.46
2017-12-25T00:14:41.272Z,95.46
2017-12-25T00:15:41.183Z,95.46
2017-12-25T00:16:41.138Z,95.65
2017-12-25T00:17:41.017Z,95.46
2017-12-25T00:18:40.932Z,95.55
2017-12-25T00:19:40.851Z,95.55
2017-12-25T00:20:40.769Z,95.46
2017-12-25T00:21:40.684Z,95.65
2017-12-25T00:22:40.612Z,96.03
2017-12-25T00:23:40.531Z,95.65
2017-12-25T00:24:40.436Z,95.93
2017-12-25T00:25:40.354Z,95.74
2017-12-25T00:26:40.269Z,95.84
2017-12-25T00:27:40.187Z,96.22
2017-12-25T00:28:40.104Z,96.41
2017-12-25T00:29:40.020Z,96.31
2017-12-25T00:30:39.936Z,96.22
2017-12-25T00:31:39.857Z,96.41
2017-12-25T00:32:39.772Z,96.03
2017-12-25T00:33:39.692Z,95.84
2017-12-25T00:34:39.627Z,96.12
2017-12-25T00:35:39.523Z,96.03
2017-12-25T00:36:39.440Z,95.84
2017-12-25T00:37:39.355Z,95.74
2017-12-25T00:38:39.275Z,96.12
2017-12-25T00:39:39.189Z,95.74
2017-12-25T00:40:39.110Z,95.74
2017-12-25T00:41:39.034Z,95.65
2017-12-25T00:42:38.966Z,95.65
2017-12-25T00:43:38.858Z,95.65
2017-12-25T00:44:38.774Z,95.74
2017-12-25T00:45:38.690Z,95.55
2017-12-25T00:46:38.609Z,95.84
2017-12-25T00:47:38.532Z,95.46
2017-12-25T00:48:38.500Z,95.84
2017-12-25T00:49:38.360Z,96.41
2017-12-25T00:50:38.277Z,96.22
2017-12-25T00:51:38.193Z,96.22
2017-12-25T00:52:38.112Z,96.03
2017-12-25T00:53:38.030Z,96.12
2017-12-25T00:54:37.944Z,96.22
2017-12-25T00:55:37.865Z,96.22
2017-12-25T00:56:37.778Z,96.22
2017-12-25T00:57:37.694Z,95.65
2017-12-25T00:58:37.614Z,95.93
2017-12-25T00:59:37.530Z,96.22
2017-12-25T01:00:37.447Z,96.50
2017-12-25T01:01:37.363Z,96.50
2017-12-25T01:02:37.282Z,96.41
2017-12-25T01:03:37.197Z,96.41
2017-12-25T01:04:37.115Z,96.59
2017-12-25T01:05:37.036Z,96.03
2017-12-25T01:06:36.948Z,96.12
2017-12-25T01:07:36.870Z,96.03
2017-12-25T01:08:36.783Z,96.03
2017-12-25T01:09:36.700Z,96.31
2017-12-25T01:10:36.617Z,96.41
2017-12-25T01:11:36.535Z,96.03
2017-12-25T01:12:36.471Z,96.31
2017-12-25T01:13:36.368Z,96.22
2017-12-25T01:14:36.285Z,96.41
2017-12-25T01:15:36.201Z,96.03
2017-12-25T01:16:36.119Z,96.41
2017-12-25T01:17:36.036Z,95.65
2017-12-25T01:18:35.952Z,95.55
2017-12-25T01:19:35.874Z,95.46
2017-12-25T01:20:35.787Z,95.55
2017-12-25T01:21:35.706Z,95.65
2017-12-25T01:22:35.620Z,95.93
2017-12-25T01:23:35.538Z,96.41
2017-12-25T01:24:35.456Z,96.12
2017-12-25T01:25:35.375Z,96.22
2017-12-25T01:26:35.289Z,95.46
2017-12-25T01:27:35.207Z,95.93
2017-12-25T01:28:35.125Z,95.74
2017-12-25T01:29:35.043Z,96.03
2017-12-25T01:30:34.957Z,95.65
2017-12-25T01:31:34.874Z,96.03
2017-12-25T01:32:34.793Z,95.93
2017-12-25T01:33:34.711Z,95.65
2017-12-25T01:34:34.626Z,95.46
2017-12-25T01:35:34.543Z,95.36
2017-12-25T01:36:34.461Z,95.55
2017-12-25T01:37:34.377Z,95.74
2017-12-25T01:38:34.295Z,95.84
2017-12-25T01:39:34.223Z,95.84
2017-12-25T01:40:34.134Z,96.41
2017-12-25T01:41:34.047Z,95.84
2017-12-25T01:42:33.968Z,95.36
2017-12-25T01:43:33.881Z,95.55
2017-12-25T01:44:33.798Z,95.27
2017-12-25T01:45:33.713Z,95.27
2017-12-25T01:46:33.632Z,95.36
2017-12-25T01:47:33.548Z,95.07
2017-12-25T01:48:33.469Z,95.27
2017-12-25T01:49:33.384Z,96.31
2017-12-25T01:50:33.304Z,95.65
2017-12-25T01:51:33.218Z,95.74
2017-12-25T01:52:33.135Z,96.03
2017-12-25T01:53:33.052Z,96.41
2017-12-25T01:54:32.969Z,96.31
2017-12-25T01:55:32.887Z,96.03
2017-12-25T01:56:32.807Z,96.22
2017-12-25T01:57:32.722Z,96.22
2017-12-25T01:58:32.640Z,96.31
2017-12-25T01:59:32.558Z,96.22
2017-12-25T02:00:32.472Z,96.12
2017-12-25T02:01:32.388Z,95.93
2017-12-25T02:02:32.307Z,95.65
2017-12-25T02:03:32.223Z,96.50
2017-12-25T02:04:32.140Z,95.84
2017-12-25T02:05:32.056Z,96.22
2017-12-25T02:06:31.975Z,96.03
2017-12-25T02:07:31.891Z,96.12
2017-12-25T02:08:31.808Z,95.65
2017-12-25T02:09:31.724Z,96.12
2017-12-25T02:10:31.644Z,95.93
2017-12-25T02:11:31.560Z,95.74
2017-12-25T02:12:31.478Z,96.22
2017-12-25T02:13:31.392Z,95.65
2017-12-25T02:14:31.310Z,96.31
2017-12-25T02:15:31.227Z,95.65
2017-12-25T02:16:31.145Z,96.59
2017-12-25T02:17:31.061Z,96.69
2017-12-25T02:18:30.980Z,96.03
2017-12-25T02:19:30.894Z,96.31
2017-12-25T02:20:30.814Z,95.93
2017-12-25T02:21:30.731Z,95.65
2017-12-25T02:22:30.646Z,96.12
2017-12-25T02:23:30.563Z,96.22
2017-12-25T02:24:30.483Z,96.41
2017-12-25T02:25:30.399Z,96.22
2017-12-25T02:26:30.314Z,96.97
2017-12-25T02:27:30.231Z,96.08
2017-12-25T02:28:30.150Z,96.92
2017-12-25T02:29:30.064Z,97.12
2017-12-25T02:30:29.981Z,97.40
2017-12-25T02:31:29.898Z,96.59
2017-12-25T02:32:29.818Z,96.88
2017-12-25T02:33:29.731Z,96.45
2017-12-25T02:34:29.651Z,96.36
2017-12-25T02:35:29.565Z,96.59
2017-12-25T02:36:29.484Z,96.78
2017-12-25T02:37:29.399Z,97.02
2017-12-25T02:38:29.325Z,96.36
2017-12-25T02:39:29.234Z,96.45
2017-12-25T02:40:29.150Z,96.92
2017-12-25T02:41:29.066Z,96.83
2017-12-25T02:42:28.987Z,96.55
2017-12-25T02:43:28.900Z,96.36
2017-12-25T02:44:28.817Z,96.73
2017-12-25T02:45:28.733Z,97.02
2017-12-25T02:46:28.653Z,97.78
2017-12-25T02:47:28.567Z,97.59
2017-12-25T02:48:28.485Z,97.02
2017-12-25T02:49:28.400Z,97.31
2017-12-25T02:50:28.319Z,97.02
2017-12-25T02:51:28.233Z,97.02
2017-12-25T02:52:28.150Z,96.83
2017-12-25T02:53:28.066Z,96.55
2017-12-25T02:54:28.012Z,96.17
2017-12-25T02:55:27.900Z,96.92
2017-12-25T02:56:27.818Z,96.26
2017-12-25T02:57:27.734Z,96.45
2017-12-25T02:58:27.650Z,96.26
2017-12-25T02:59:27.567Z,96.08
2017-12-25T03:00:27.485Z,96.17
2017-12-25T03:01:27.401Z,96.26
2017-12-25T03:02:27.317Z,96.17
2017-12-25T03:03:27.237Z,95.79
2017-12-25T03:04:27.150Z,96.17
2017-12-25T03:05:27.068Z,96.73
2017-12-25T03:06:26.984Z,96.36
2017-12-25T03:07:26.901Z,96.36
2017-12-25T03:08:26.818Z,96.92
2017-12-25T03:09:26.734Z,96.64
2017-12-25T03:10:26.650Z,97.02
2017-12-25T03:11:26.567Z,97.12
2017-12-25T03:12:26.484Z,96.55
2017-12-25T03:13:26.400Z,97.21
2017-12-25T03:14:26.317Z,97.02
2017-12-25T03:15:26.235Z,97.78
2017-12-25T03:16:26.151Z,96.92
2017-12-25T03:17:26.067Z,97.21
2017-12-25T03:18:25.984Z,97.21
2017-12-25T03:19:25.900Z,97.31
2017-12-25T03:20:25.820Z,97.59
2017-12-25T03:21:25.735Z,96.73
2017-12-25T03:22:25.650Z,97.12
2017-12-25T03:23:25.566Z,97.12
2017-12-25T03:24:25.482Z,97.02
2017-12-25T03:25:25.399Z,97.50
2017-12-25T03:26:25.317Z,97.50
2017-12-25T03:27:25.233Z,97.02
2017-12-25T03:28:25.149Z,97.02
2017-12-25T03:29:25.063Z,97.12
2017-12-25T03:30:24.987Z,97.12
2017-12-25T03:31:24.898Z,97.31
2017-12-25T03:32:24.813Z,97.50
2017-12-25T03:33:24.729Z,97.31
2017-12-25T03:34:24.645Z,97.02
2017-12-25T03:35:24.562Z,96.45
2017-12-25T03:36:24.478Z,96.45
2017-12-25T03:37:24.394Z,96.17
2017-12-25T03:38:24.312Z,96.92
2017-12-25T03:39:24.240Z,96.73
2017-12-25T03:40:24.144Z,97.02
2017-12-25T03:41:24.060Z,96.45
2017-12-25T03:42:23.976Z,96.73
2017-12-25T03:43:23.892Z,97.02
2017-12-25T03:44:23.809Z,96.55
2017-12-25T03:45:23.725Z,96.64
2017-12-25T03:46:23.640Z,96.45
2017-12-25T03:47:23.558Z,97.07
2017-12-25T03:48:23.478Z,96.97
2017-12-25T03:49:23.391Z,96.69
2017-12-25T03:50:23.306Z,96.97
2017-12-25T03:51:23.222Z,96.59
2017-12-25T03:52:23.141Z,96.12
2017-12-25T03:53:23.053Z,96.78
2017-12-25T03:54:22.972Z,96.31
2017-12-25T03:55:22.887Z,96.69
2017-12-25T03:56:22.802Z,96.69
2017-12-25T03:57:22.720Z,96.50
2017-12-25T03:58:22.636Z,96.50
2017-12-25T03:59:22.550Z,96.22
2017-12-25T04:00:22.468Z,96.31
2017-12-25T04:01:22.383Z,95.84
2017-12-25T04:02:22.300Z,96.17
2017-12-25T04:03:22.217Z,95.93
2017-12-25T04:04:22.159Z,95.84
2017-12-25T04:05:22.047Z,96.22
2017-12-25T04:06:21.966Z,96.12
2017-12-25T04:07:21.880Z,96.50
2017-12-25T04:08:21.797Z,96.26
2017-12-25T04:09:21.720Z,96.31
2017-12-25T04:10:21.640Z,96.31
2017-12-25T04:11:21.544Z,96.12
2017-12-25T04:12:21.462Z,96.12
2017-12-25T04:13:21.378Z,96.08
2017-12-25T04:14:21.292Z,96.12
2017-12-25T04:15:21.209Z,96.03
2017-12-25T04:16:21.126Z,95.74
2017-12-25T04:17:21.041Z,95.26
2017-12-25T04:18:20.959Z,95.55
2017-12-25T04:19:20.879Z,94.98
2017-12-25T04:20:20.789Z,95.45
2017-12-25T04:21:20.705Z,95.17
2017-12-25T04:22:20.622Z,95.36
2017-12-25T04:23:20.537Z,95.74
2017-12-25T04:24:20.454Z,95.36
2017-12-25T04:25:20.369Z,95.45
2017-12-25T04:26:20.335Z,95.45
2017-12-25T04:27:20.201Z,95.65
2017-12-25T04:28:20.118Z,95.26
2017-12-25T04:29:20.033Z,94.89
2017-12-25T04:30:19.950Z,95.07
2017-12-25T04:31:19.866Z,95.65
2017-12-25T04:32:19.781Z,95.74
2017-12-25T04:33:19.696Z,95.84
2017-12-25T04:34:19.612Z,95.55
2017-12-25T04:35:19.529Z,95.55
2017-12-25T04:36:19.450Z,95.74
2017-12-25T04:37:19.361Z,95.36
2017-12-25T04:38:19.286Z,95.65
2017-12-25T04:39:19.209Z,95.55
2017-12-25T04:40:19.109Z,95.65
2017-12-25T04:41:19.026Z,95.07
2017-12-25T04:42:18.941Z,95.36
2017-12-25T04:43:18.856Z,95.55
2017-12-25T04:44:18.774Z,95.17
2017-12-25T04:45:18.687Z,95.36
2017-12-25T04:46:18.603Z,95.36
2017-12-25T04:47:18.520Z,94.98
2017-12-25T04:48:18.436Z,95.07
2017-12-25T04:49:18.353Z,94.79
2017-12-25T04:50:18.269Z,94.70
2017-12-25T04:51:18.183Z,94.98
2017-12-25T04:52:18.100Z,93.84
2017-12-25T04:53:18.016Z,94.51
2017-12-25T04:54:17.930Z,94.42
2017-12-25T04:55:17.847Z,94.51
2017-12-25T04:56:17.765Z,94.89
2017-12-25T04:57:17.680Z,95.07
2017-12-25T04:58:17.594Z,95.74
2017-12-25T04:59:17.510Z,95.07
2017-12-25T05:00:17.429Z,95.36
2017-12-25T05:01:17.343Z,95.45
2017-12-25T05:02:17.257Z,95.17
2017-12-25T05:03:17.176Z,95.45
2017-12-25T05:04:17.090Z,95.74
2017-12-25T05:05:17.005Z,95.93
2017-12-25T05:06:16.927Z,96.12
2017-12-25T05:07:16.838Z,96.50
2017-12-25T05:08:16.755Z,96.12
2017-12-25T05:09:16.669Z,96.59
2017-12-25T05:10:16.584Z,96.31
2017-12-25T05:11:16.501Z,97.07
2017-12-25T05:12:16.417Z,96.78
2017-12-25T05:13:16.332Z,96.03
2017-12-25T05:14:16.250Z,96.88
2017-12-25T05:15:16.163Z,96.59
2017-12-25T05:16:16.086Z,96.69
2017-12-25T05:17:15.995Z,96.12
2017-12-25T05:18:15.911Z,96.22
2017-12-25T05:19:15.827Z,96.69
2017-12-25T05:20:15.749Z,97.45
2017-12-25T05:21:15.657Z,96.31
2017-12-25T05:22:15.572Z,96.31
2017-12-25T05:23:15.489Z,96.26
2017-12-25T05:24:15.404Z,96.55
2017-12-25T05:25:15.320Z,96.31
2017-12-25T05:26:15.237Z,96.41
2017-12-25T05:27:15.150Z,96.50
2017-12-25T05:28:15.069Z,96.22
2017-12-25T05:29:14.982Z,97.07
2017-12-25T05:30:14.899Z,96.69
2017-12-25T05:31:14.813Z,96.69
2017-12-25T05:32:14.731Z,96.97
2017-12-25T05:33:14.645Z,96.73
2017-12-25T05:34:14.562Z,96.31
2017-12-25T05:35:14.475Z,96.17
2017-12-25T05:36:14.402Z,96.26
2017-12-25T05:37:14.307Z,96.88
2017-12-25T05:38:14.221Z,96.03
2017-12-25T05:39:14.139Z,96.45
2017-12-25T05:40:14.053Z,96.26
2017-12-25T05:41:13.968Z,96.50
2017-12-25T05:42:13.932Z,96.07
2017-12-25T05:43:13.800Z,96.26
2017-12-25T05:44:13.719Z,95.69
2017-12-25T05:45:13.629Z,96.07
2017-12-25T05:46:13.548Z,95.98
2017-12-25T05:47:13.469Z,96.07
2017-12-25T05:48:13.377Z,95.88
2017-12-25T05:49:13.292Z,96.36
2017-12-25T05:50:13.208Z,95.88
2017-12-25T05:51:13.124Z,95.88
2017-12-25T05:52:13.039Z,96.26
2017-12-25T05:53:12.957Z,96.07
2017-12-25T05:54:12.870Z,95.88
2017-12-25T05:55:12.787Z,96.36
2017-12-25T05:56:12.713Z,96.07
2017-12-25T05:57:12.615Z,96.07
2017-12-25T05:58:12.531Z,95.79
2017-12-25T05:59:12.447Z,95.79
2017-12-25T06:00:12.363Z,95.79
2017-12-25T06:01:12.277Z,96.26
2017-12-25T06:02:12.192Z,96.17
2017-12-25T06:03:12.110Z,95.88
2017-12-25T06:04:12.023Z,96.07
2017-12-25T06:05:11.939Z,95.98
2017-12-25T06:06:11.860Z,95.98
2017-12-25T06:07:11.770Z,95.98
2017-12-25T06:08:11.686Z,95.69
2017-12-25T06:09:11.600Z,96.17
2017-12-25T06:10:11.516Z,95.98
2017-12-25T06:11:11.431Z,96.26
2017-12-25T06:12:11.347Z,95.41
2017-12-25T06:13:11.262Z,95.69
2017-12-25T06:14:11.179Z,95.79
2017-12-25T06:15:11.093Z,96.26
2017-12-25T06:16:11.009Z,96.36
2017-12-25T06:17:10.923Z,96.07
2017-12-25T06:18:10.838Z,96.26
2017-12-25T06:19:10.753Z,95.98
2017-12-25T06:20:10.669Z,95.50
2017-12-25T06:21:10.588Z,96.26
2017-12-25T06:22:10.499Z,96.07
2017-12-25T06:23:10.416Z,96.17
2017-12-25T06:24:10.331Z,96.26
2017-12-25T06:25:10.245Z,96.07
2017-12-25T06:26:10.160Z,96.17
2017-12-25T06:27:10.082Z,96.17
2017-12-25T06:28:09.991Z,96.26
2017-12-25T06:29:09.905Z,96.17
2017-12-25T06:30:09.822Z,96.26
2017-12-25T06:31:09.736Z,96.17
2017-12-25T06:32:09.654Z,96.36
2017-12-25T06:33:09.568Z,95.79
2017-12-25T06:34:09.498Z,96.36
2017-12-25T06:35:09.398Z,95.79
2017-12-25T06:36:09.313Z,96.26
2017-12-25T06:37:09.232Z,96.07
2017-12-25T06:38:09.145Z,95.79
2017-12-25T06:39:09.057Z,96.26
2017-12-25T06:40:08.976Z,96.36
2017-12-25T06:41:08.890Z,95.98
2017-12-25T06:42:08.804Z,95.88
2017-12-25T06:43:08.719Z,95.98
2017-12-25T06:44:08.640Z,96.07
2017-12-25T06:45:08.550Z,96.36
2017-12-25T06:46:08.465Z,96.17
2017-12-25T06:47:08.384Z,96.55
2017-12-25T06:48:08.295Z,96.64
2017-12-25T06:49:08.210Z,96.26
2017-12-25T06:50:08.123Z,96.26
2017-12-25T06:51:08.040Z,96.26
2017-12-25T06:52:07.956Z,95.69
2017-12-25T06:53:07.871Z,95.88
2017-12-25T06:54:07.797Z,95.88
2017-12-25T06:55:07.700Z,95.69
2017-12-25T06:56:07.616Z,95.22
2017-12-25T06:57:07.532Z,96.17
2017-12-25T06:58:07.445Z,95.98
2017-12-25T06:59:07.362Z,96.26
2017-12-25T07:00:07.277Z,95.88
2017-12-25T07:01:07.192Z,95.60
2017-12-25T07:02:07.111Z,95.69
2017-12-25T07:03:07.022Z,95.69
2017-12-25T07:04:06.938Z,95.88
2017-12-25T07:05:06.852Z,96.26
2017-12-25T07:06:06.771Z,96.17
2017-12-25T07:07:06.682Z,96.83
2017-12-25T07:08:06.598Z,96.36
2017-12-25T07:09:06.513Z,96.73
2017-12-25T07:10:06.427Z,96.83
2017-12-25T07:11:06.344Z,96.83
2017-12-25T07:12:06.258Z,96.45
2017-12-25T07:13:06.173Z,96.02
2017-12-25T07:14:06.087Z,96.17
2017-12-25T07:15:06.003Z,96.45
2017-12-25T07:16:05.921Z,96.45
2017-12-25T07:17:05.834Z,96.26
2017-12-25T07:18:05.748Z,96.73
2017-12-25T07:19:05.665Z,96.64
2017-12-25T07:20:05.578Z,96.55
2017-12-25T07:21:05.494Z,96.83
2017-12-25T07:22:05.407Z,96.26
2017-12-25T07:23:05.325Z,96.78
2017-12-25T07:24:05.239Z,96.40
2017-12-25T07:25:05.192Z,96.40
2017-12-25T07:26:05.068Z,96.50
2017-12-25T07:27:04.984Z,96.40
2017-12-25T07:28:04.897Z,96.59
2017-12-25T07:29:04.812Z,96.78
2017-12-25T07:30:04.727Z,96.50
2017-12-25T07:31:04.643Z,96.97
2017-12-25T07:32:04.558Z,96.69
2017-12-25T07:33:04.472Z,97.02
2017-12-25T07:34:04.412Z,97.11
2017-12-25T07:35:04.302Z,97.30
2017-12-25T07:36:04.247Z,97.11
2017-12-25T07:37:04.131Z,96.07
2017-12-25T07:38:04.046Z,96.73
2017-12-25T07:39:03.961Z,96.17
2017-12-25T07:40:03.876Z,96.17
2017-12-25T07:41:03.792Z,96.36
2017-12-25T07:42:03.711Z,96.26
2017-12-25T07:43:03.621Z,96.17
2017-12-25T07:44:03.536Z,95.88
2017-12-25T07:45:03.453Z,95.41
2017-12-25T07:46:03.366Z,95.12
2017-12-25T07:47:03.287Z,94.74
2017-12-25T07:48:03.197Z,95.12
2017-12-25T07:49:03.111Z,95.31
2017-12-25T07:50:03.027Z,95.50
2017-12-25T07:51:02.941Z,95.98
2017-12-25T07:52:02.855Z,95.88
2017-12-25T07:53:02.774Z,95.98
2017-12-25T07:54:02.685Z,96.26
2017-12-25T07:55:02.602Z,95.88
2017-12-25T07:56:02.517Z,96.26
2017-12-25T07:57:02.430Z,95.88
2017-12-25T07:58:02.347Z,95.41
2017-12-25T07:59:02.262Z,95.31
2017-12-25T08:00:02.180Z,95.60
2017-12-25T08:01:02.094Z,95.98
2017-12-25T08:02:02.007Z,95.69
2017-12-25T08:03:01.921Z,96.17
2017-12-25T08:04:01.838Z,96.12
2017-12-25T08:05:01.761Z,95.83
2017-12-25T08:06:01.667Z,95.93
2017-12-25T08:07:01.583Z,96.59
2017-12-25T08:08:01.506Z,96.97
2017-12-25T08:09:01.411Z,96.21
2017-12-25T08:10:01.328Z,96.97
2017-12-25T08:11:01.244Z,96.02
2017-12-25T08:12:01.161Z,96.21
2017-12-25T08:13:01.073Z,96.40
2017-12-25T08:14:00.987Z,96.50
2017-12-25T08:15:00.904Z,96.69
2017-12-25T08:16:00.820Z,96.78
2017-12-25T08:17:00.731Z,96.31
2017-12-25T08:18:00.649Z,96.12
2017-12-25T08:19:00.606Z,96.02
2017-12-25T08:20:00.477Z,96.59
2017-12-25T08:21:00.401Z,96.59
2017-12-25T08:22:00.307Z,96.12
2017-12-25T08:23:00.221Z,96.02
2017-12-25T08:24:00.136Z,96.31
2017-12-25T08:25:00.080Z,95.74
2017-12-25T08:25:59.968Z,96.21
2017-12-25T08:26:59.882Z,96.40
2017-12-25T08:27:59.805Z,96.59
2017-12-25T08:28:59.728Z,96.17
2017-12-25T08:29:59.654Z,96.02
2017-12-25T08:30:59.560Z,96.26
2017-12-25T08:31:59.474Z,95.88
2017-12-25T08:32:59.375Z,96.26
2017-12-25T08:33:59.286Z,96.17
2017-12-25T08:34:59.201Z,95.88
2017-12-25T08:35:59.115Z,95.79
2017-12-25T08:36:59.030Z,95.60
2017-12-25T08:37:58.945Z,95.88
2017-12-25T08:38:58.859Z,95.88
2017-12-25T08:39:58.779Z,96.07
2017-12-25T08:40:58.689Z,95.69
2017-12-25T08:41:58.604Z,95.69
2017-12-25T08:42:58.536Z,95.60
2017-12-25T08:43:58.437Z,94.93
2017-12-25T08:44:58.355Z,94.84
2017-12-25T08:45:58.273Z,94.93
2017-12-25T08:48:30.214Z,95.03
2017-12-25T08:49:30.064Z,95.03
2017-12-25T08:51:24.295Z,95.50
2017-12-25T08:52:24.208Z,95.12
2017-12-25T08:53:24.122Z,95.79
2017-12-25T08:54:24.038Z,95.69
2017-12-25T08:55:23.954Z,95.50
2017-12-25T08:56:23.871Z,95.88
2017-12-25T08:57:23.783Z,95.98
2017-12-25T08:58:23.698Z,96.07
2017-12-25T08:59:23.614Z,95.79
2017-12-25T09:00:23.533Z,96.17
2017-12-25T09:01:23.442Z,95.69
2017-12-25T09:02:23.359Z,95.60
2017-12-25T09:03:23.287Z,96.26
2017-12-25T09:04:23.191Z,95.69
2017-12-25T09:05:23.104Z,95.60
2017-12-25T09:06:23.020Z,95.41
2017-12-25T09:07:22.961Z,95.41
2017-12-25T09:08:22.852Z,95.69
2017-12-25T09:09:22.780Z,95.60
2017-12-25T09:10:22.681Z,95.50
2017-12-25T09:11:22.597Z,94.93
2017-12-25T09:12:22.514Z,95.50
2017-12-25T09:13:22.427Z,95.60
2017-12-25T09:14:22.348Z,95.22
2017-12-25T09:15:22.261Z,96.07
2017-12-25T09:16:22.175Z,96.07
2017-12-25T09:17:22.242Z,96.07
2017-12-25T09:18:22.011Z,96.21
2017-12-25T09:19:21.920Z,96.12
2017-12-25T09:20:21.836Z,96.59
2017-12-25T09:21:21.751Z,96.21
2017-12-25T09:22:21.679Z,96.21
2017-12-25T09:23:21.582Z,96.21
2017-12-25T09:24:21.496Z,96.50
2017-12-25T09:25:21.410Z,96.02
2017-12-25T09:26:21.326Z,96.21
2017-12-25T09:27:21.242Z,96.07
2017-12-25T09:28:21.160Z,95.69
2017-12-25T09:29:21.073Z,95.41
2017-12-25T09:30:20.987Z,95.55
2017-12-25T09:31:20.901Z,96.02
2017-12-25T09:32:20.816Z,96.21
2017-12-25T09:33:20.731Z,96.31
2017-12-25T09:34:20.648Z,95.83
2017-12-25T09:35:20.562Z,96.31
2017-12-25T09:36:20.476Z,96.02
2017-12-25T09:37:20.396Z,95.83
2017-12-25T09:38:20.310Z,96.21
2017-12-25T09:39:20.223Z,96.21
2017-12-25T09:40:20.142Z,96.78
2017-12-25T09:41:20.052Z,96.50
2017-12-25T09:42:19.966Z,96.69
2017-12-25T09:43:19.888Z,97.02
2017-12-25T09:44:19.821Z,95.88
2017-12-25T09:45:19.713Z,95.98
2017-12-25T09:46:19.633Z,96.26
2017-12-25T09:47:19.544Z,96.17
2017-12-25T09:48:19.464Z,95.69
2017-12-25T09:49:19.383Z,95.12
2017-12-25T09:50:19.287Z,95.50
2017-12-25T09:51:19.203Z,95.31
2017-12-25T09:52:19.125Z,95.41
2017-12-25T09:53:19.032Z,95.69
2017-12-25T09:54:18.947Z,95.22
2017-12-25T09:55:19.441Z,95.41
2017-12-25T09:56:18.783Z,95.50
2017-12-25T09:57:18.694Z,95.98
2017-12-25T09:58:18.691Z,95.41
2017-12-25T09:59:18.527Z,95.41
2017-12-25T10:00:18.455Z,95.31
2017-12-25T10:01:18.358Z,95.88
2017-12-25T10:02:18.270Z,95.60
2017-12-25T10:03:18.186Z,95.69
2017-12-25T10:04:18.101Z,95.79
2017-12-25T10:05:18.018Z,95.60
2017-12-25T10:06:17.934Z,95.60
2017-12-25T10:07:17.849Z,95.69
2017-12-25T10:08:17.761Z,96.17
2017-12-25T10:09:17.696Z,95.98
2017-12-25T10:10:17.614Z,95.50
2017-12-25T10:11:17.581Z,95.79
2017-12-25T10:12:17.428Z,95.79
2017-12-25T10:13:17.336Z,95.41
2017-12-25T10:14:17.253Z,95.41
2017-12-25T10:15:17.186Z,95.50
2017-12-25T10:16:17.083Z,95.60
2017-12-25T10:17:16.997Z,95.12
2017-12-25T10:18:16.953Z,95.50
2017-12-25T10:19:16.827Z,95.41
2017-12-25T10:20:16.745Z,95.60
2017-12-25T10:21:16.666Z,95.88
2017-12-25T10:22:16.609Z,96.26
2017-12-25T10:23:16.496Z,95.79
2017-12-25T10:24:16.408Z,95.79
2017-12-25T10:25:16.379Z,95.50
2017-12-25T10:26:16.299Z,95.79
2017-12-25T10:27:16.181Z,95.69
2017-12-25T10:28:16.065Z,95.98
2017-12-25T10:29:15.982Z,95.88
2017-12-25T10:30:15.896Z,95.88
2017-12-25T10:31:15.814Z,95.41
2017-12-25T10:32:15.726Z,95.41
2017-12-25T10:33:15.641Z,95.31
2017-12-25T10:34:15.655Z,94.84
2017-12-25T10:35:15.527Z,95.60
2017-12-25T10:36:15.421Z,95.41
2017-12-25T10:37:15.304Z,95.41
2017-12-25T10:38:15.217Z,95.69
2017-12-25T10:39:15.173Z,96.26
2017-12-25T10:40:15.053Z,96.26
2017-12-25T10:41:14.977Z,96.17
2017-12-25T10:42:14.892Z,95.98
2017-12-25T10:43:14.827Z,96.36
2017-12-25T10:44:14.738Z,95.98
2017-12-25T10:45:14.626Z,96.26
2017-12-25T10:46:14.539Z,95.69
2017-12-25T10:47:14.460Z,96.17
2017-12-25T10:48:14.372Z,95.79
2017-12-25T10:49:14.286Z,95.60
2017-12-25T10:50:14.203Z,95.69
2017-12-25T10:51:14.116Z,95.41
2017-12-25T10:52:14.032Z,95.12
2017-12-25T10:53:13.959Z,95.50
2017-12-25T10:54:13.862Z,95.03
2017-12-25T10:55:13.778Z,95.50
2017-12-25T10:56:13.694Z,95.50
2017-12-25T10:57:13.654Z,96.07
2017-12-25T10:58:13.525Z,95.31
2017-12-25T10:59:13.438Z,95.60
2017-12-25T11:00:13.353Z,95.41
2017-12-25T11:01:13.270Z,95.69
2017-12-25T11:02:13.185Z,95.60
2017-12-25T11:03:13.102Z,95.79
2017-12-25T11:04:13.030Z,95.79
2017-12-25T11:05:12.930Z,95.12
2017-12-25T11:06:12.846Z,95.69
2017-12-25T11:07:12.762Z,95.50
2017-12-25T11:08:12.758Z,95.12
2017-12-25T11:09:12.594Z,95.22
2017-12-25T11:10:12.506Z,95.41
2017-12-25T11:11:12.425Z,95.31
2017-12-25T11:12:12.337Z,95.41
2017-12-25T11:13:12.251Z,95.50
2017-12-25T11:14:12.168Z,95.50
2017-12-25T11:15:12.084Z,94.84
2017-12-25T11:16:11.998Z,95.12
2017-12-25T11:17:11.914Z,95.22
2017-12-25T11:18:11.829Z,95.50
2017-12-25T11:19:11.745Z,95.12
2017-12-25T11:20:11.673Z,94.93
2017-12-25T11:21:11.578Z,94.84
2017-12-25T11:22:11.491Z,94.74
2017-12-25T11:23:11.409Z,95.41
2017-12-25T11:24:11.322Z,95.31
2017-12-25T11:25:11.256Z,95.22
2017-12-25T11:26:11.153Z,94.84
2017-12-25T11:27:11.072Z,94.65
2017-12-25T11:28:10.984Z,94.46
2017-12-25T11:29:10.933Z,94.74
2017-12-25T11:30:10.816Z,95.31
2017-12-25T11:31:10.730Z,94.65
2017-12-25T11:32:10.647Z,94.84
2017-12-25T11:33:10.560Z,94.56
2017-12-25T11:34:10.480Z,94.56
2017-12-25T11:35:10.391Z,94.46
2017-12-25T11:36:10.308Z,94.56
2017-12-25T11:37:10.226Z,94.18
2017-12-25T11:38:10.141Z,94.56
2017-12-25T11:39:10.059Z,94.65
2017-12-25T11:40:09.976Z,94.65
2017-12-25T11:41:09.884Z,94.46
2017-12-25T11:42:09.803Z,94.56
2017-12-25T11:43:09.736Z,94.74
2017-12-25T11:44:09.639Z,94.37
2017-12-25T11:45:09.546Z,94.27
2017-12-25T11:46:09.465Z,95.31
2017-12-25T11:47:09.379Z,95.31
2017-12-25T11:48:09.294Z,95.31
2017-12-25T11:49:09.210Z,95.41
2017-12-25T11:50:09.126Z,95.12
2017-12-25T11:51:09.040Z,95.31
2017-12-25T11:52:08.957Z,94.46
2017-12-25T11:53:08.871Z,94.74
2017-12-25T11:54:08.785Z,94.18
2017-12-25T11:55:08.702Z,94.46
2017-12-25T11:56:08.617Z,94.46
2017-12-25T11:57:08.533Z,93.89
2017-12-25T11:58:08.454Z,94.37
2017-12-25T11:59:08.365Z,94.84
2017-12-25T12:00:08.280Z,94.27
2017-12-25T12:01:08.193Z,94.74
2017-12-25T12:02:08.111Z,94.84
2017-12-25T12:03:08.025Z,94.93
2017-12-25T12:04:07.940Z,94.56
2017-12-25T12:05:07.854Z,94.65
2017-12-25T12:06:07.772Z,93.80
2017-12-25T12:07:07.686Z,93.70
2017-12-25T12:08:07.606Z,94.08
2017-12-25T12:09:07.522Z,94.56
2017-12-25T12:10:07.433Z,94.27
2017-12-25T12:11:07.350Z,93.99
2017-12-25T12:12:07.264Z,94.27
2017-12-25T12:13:07.178Z,94.46
2017-12-25T12:14:07.094Z,93.99
2017-12-25T12:15:07.015Z,93.89
2017-12-25T12:16:06.926Z,94.84
2017-12-25T12:17:06.842Z,94.65
2017-12-25T12:18:06.759Z,94.56
2017-12-25T12:19:06.673Z,94.65
2017-12-25T12:20:06.589Z,94.08
2017-12-25T12:21:06.516Z,94.18
2017-12-25T12:22:06.419Z,93.99
2017-12-25T12:23:06.335Z,94.37
2017-12-25T12:24:06.253Z,94.46
2017-12-25T12:25:06.167Z,93.99
2017-12-25T12:26:06.084Z,94.08
2017-12-25T12:27:05.995Z,94.37
2017-12-25T12:28:05.914Z,94.18
2017-12-25T12:29:05.829Z,94.46
2017-12-25T12:30:05.743Z,94.74
2017-12-25T12:31:05.658Z,94.65
2017-12-25T12:32:05.574Z,94.65
2017-12-25T12:33:05.490Z,94.74
2017-12-25T12:34:05.406Z,94.93
2017-12-25T12:35:05.321Z,93.70
2017-12-25T12:37:38.250Z,93.80
2017-12-25T12:38:38.121Z,93.70
2017-12-25T12:39:38.031Z,93.89
2017-12-25T12:40:37.947Z,93.80
2017-12-25T12:41:37.861Z,94.18
2017-12-25T12:42:37.776Z,93.61
2017-12-25T12:43:37.692Z,93.70
2017-12-25T12:44:37.623Z,94.18
2017-12-25T12:45:37.532Z,93.61
2017-12-25T12:46:37.439Z,93.89
2017-12-25T12:47:37.362Z,93.61
2017-12-25T12:48:37.273Z,93.80
2017-12-25T12:49:37.185Z,93.70
2017-12-25T12:50:37.101Z,93.80
2017-12-25T12:51:37.016Z,93.51
2017-12-25T12:52:36.933Z,93.61
2017-12-25T12:53:36.849Z,94.08
2017-12-25T12:54:36.772Z,94.46
2017-12-25T12:55:36.679Z,94.37